createdAt,value
2022-08-03T00:01:29.223Z,96797.00
2022-08-03T00:03:56.890Z,96793.31
2022-08-03T00:06:25.863Z,96792.53
2022-08-03T00:08:53.528Z,96788.53
2022-08-03T00:11:21.881Z,96791.66
2022-08-03T00:13:49.542Z,96790.06
2022-08-03T00:16:17.127Z,96791.91
2022-08-03T00:18:44.814Z,96788.22
2022-08-03T00:21:12.544Z,96787.66
2022-08-03T00:23:52.184Z,96789.25
2022-08-03T00:26:20.406Z,96783.66
2022-08-03T00:28:47.922Z,96781.75
2022-08-03T00:31:15.560Z,96782.78
2022-08-03T00:33:59.554Z,96777.47
2022-08-03T00:36:30.847Z,96772.72
2022-08-03T00:38:59.797Z,96768.47
2022-08-03T00:41:27.302Z,96776.72
2022-08-03T00:43:54.876Z,96763.19
2022-08-03T00:46:22.770Z,96774.63
2022-08-03T00:48:50.500Z,96774.31
2022-08-03T00:51:18.937Z,96774.31
2022-08-03T00:53:46.531Z,96773.81
2022-08-03T00:56:16.650Z,96784.44
2022-08-03T00:58:46.151Z,96783.31
2022-08-03T01:01:14.335Z,96785.13
2022-08-03T01:03:42.484Z,96779.19
2022-08-03T01:06:17.917Z,96779.88
2022-08-03T01:08:49.446Z,96781.19
2022-08-03T01:11:28.244Z,96773.38
2022-08-03T01:14:18.241Z,96774.16
2022-08-03T01:16:56.769Z,96775.19
2022-08-03T01:19:46.444Z,96769.03
2022-08-03T01:22:45.340Z,96769.47
2022-08-03T01:25:25.682Z,96767.31
2022-08-03T01:28:04.270Z,96766.19
2022-08-03T01:30:36.037Z,96756.63
2022-08-03T01:33:07.240Z,96763.28
2022-08-03T01:35:39.968Z,96760.94
2022-08-03T01:38:13.271Z,96758.34
2022-08-03T01:40:42.324Z,96761.00
2022-08-03T01:43:13.627Z,96751.97
2022-08-03T01:45:44.860Z,96762.25
2022-08-03T01:48:13.910Z,96765.41
2022-08-03T01:50:41.890Z,96757.13
2022-08-03T01:53:10.383Z,96749.91
2022-08-03T01:55:40.030Z,96752.78
2022-08-03T01:58:09.007Z,96751.19
2022-08-03T02:00:38.517Z,96751.66
2022-08-03T02:03:08.614Z,96754.81
2022-08-03T02:05:38.893Z,96751.38
2022-08-03T02:08:08.785Z,96750.88
2022-08-03T02:10:37.575Z,96750.88
2022-08-03T02:13:08.246Z,96747.44
2022-08-03T02:15:37.979Z,96751.19
2022-08-03T02:18:09.857Z,96744.03
2022-08-03T02:20:39.704Z,96751.09
2022-08-03T02:23:07.825Z,96741.47
2022-08-03T02:25:39.709Z,96749.38
2022-08-03T02:28:11.577Z,96749.31
2022-08-03T02:30:42.007Z,96746.88
2022-08-03T02:33:28.199Z,96748.19
2022-08-03T02:35:58.153Z,96742.31
2022-08-03T02:38:32.082Z,96743.84
2022-08-03T02:41:01.225Z,96746.44
2022-08-03T02:43:39.210Z,96729.63
2022-08-03T02:46:21.437Z,96739.09
2022-08-03T02:48:54.619Z,96745.91
2022-08-03T02:51:23.372Z,96744.81
2022-08-03T02:53:52.133Z,96736.03
2022-08-03T02:56:20.615Z,96737.94
2022-08-03T02:58:49.863Z,96732.28
2022-08-03T03:01:20.346Z,96734.75
2022-08-03T03:03:49.116Z,96738.78
2022-08-03T03:06:19.506Z,96739.59
2022-08-03T03:08:48.613Z,96736.38
2022-08-03T03:11:19.055Z,96738.47
2022-08-03T03:13:48.066Z,96732.63
2022-08-03T03:16:17.051Z,96733.75
2022-08-03T03:18:46.174Z,96737.75
2022-08-03T03:21:15.332Z,96734.88
2022-08-03T03:23:47.698Z,96734.13
2022-08-03T03:26:16.576Z,96732.28
2022-08-03T03:28:44.826Z,96734.38
2022-08-03T03:31:12.621Z,96737.25
2022-08-03T03:33:40.457Z,96742.50
2022-08-03T03:36:08.577Z,96737.91
2022-08-03T03:38:36.193Z,96742.66
2022-08-03T03:41:05.940Z,96742.66
2022-08-03T03:43:33.779Z,96748.19
2022-08-03T03:46:02.108Z,96744.19
2022-08-03T03:48:29.997Z,96743.50
2022-08-03T03:51:00.184Z,96743.97
2022-08-03T03:53:28.017Z,96741.25
2022-08-03T03:55:59.155Z,96736.91
2022-08-03T03:58:32.242Z,96737.41
2022-08-03T04:01:00.081Z,96743.50
2022-08-03T04:03:27.983Z,96738.53
2022-08-03T04:06:13.029Z,96740.69
2022-08-03T04:09:13.370Z,96735.97
2022-08-03T04:11:44.538Z,96739.09
2022-08-03T04:14:17.426Z,96733.97
2022-08-03T04:16:48.112Z,96737.31
2022-08-03T04:19:23.269Z,96742.03
2022-08-03T04:21:57.129Z,96740.53
2022-08-03T04:24:28.006Z,96745.34
2022-08-03T04:26:58.394Z,96745.44
2022-08-03T04:29:29.455Z,96746.56
2022-08-03T04:31:58.810Z,96750.22
2022-08-03T04:34:26.408Z,96747.06
2022-08-03T04:36:58.906Z,96752.34
2022-08-03T04:39:28.701Z,96755.22
2022-08-03T04:42:02.289Z,96758.59
2022-08-03T04:44:38.579Z,96754.34
2022-08-03T04:47:06.228Z,96753.53
2022-08-03T04:49:34.326Z,96757.25
2022-08-03T04:52:02.467Z,96750.56
2022-08-03T04:54:30.053Z,96749.19
2022-08-03T04:56:57.622Z,96756.34
2022-08-03T04:59:25.145Z,96757.13
2022-08-03T05:01:54.043Z,96767.50
2022-08-03T05:04:21.714Z,96754.03
2022-08-03T05:06:54.839Z,96755.38
2022-08-03T05:09:45.077Z,96753.88
2022-08-03T05:12:10.440Z,96754.44
2022-08-03T05:14:39.192Z,96762.63
2022-08-03T05:17:09.325Z,96760.19
2022-08-03T05:19:36.946Z,96767.34
2022-08-03T05:22:04.498Z,96767.13
2022-08-03T05:24:32.017Z,96766.84
2022-08-03T05:26:59.554Z,96770.34
2022-08-03T05:29:27.047Z,96769.34
2022-08-03T05:31:54.576Z,96768.41
2022-08-03T05:34:23.459Z,96771.94
2022-08-03T05:36:51.003Z,96768.59
2022-08-03T05:39:18.506Z,96767.88
2022-08-03T05:41:46.176Z,96769.56
2022-08-03T05:44:13.701Z,96774.13
2022-08-03T05:46:41.231Z,96777.41
2022-08-03T05:49:08.758Z,96771.13
2022-08-03T05:51:38.092Z,96774.91
2022-08-03T05:54:05.648Z,96771.75
2022-08-03T05:56:33.322Z,96776.09
2022-08-03T05:59:11.550Z,96763.97
2022-08-03T06:01:48.742Z,96774.63
2022-08-03T06:04:16.360Z,96773.88
2022-08-03T06:06:45.359Z,96774.22
2022-08-03T06:09:13.185Z,96770.81
2022-08-03T06:11:42.080Z,96768.00
2022-08-03T06:14:09.847Z,96766.44
2022-08-03T06:16:37.370Z,96772.41
2022-08-03T06:19:04.883Z,96771.91
2022-08-03T06:21:32.470Z,96772.78
2022-08-03T06:24:01.290Z,96773.88
2022-08-03T06:26:30.143Z,96772.09
2022-08-03T06:28:57.693Z,96774.00
2022-08-03T06:31:33.359Z,96774.88
2022-08-03T06:34:33.153Z,96782.91
2022-08-03T06:36:51.190Z,96773.13
2022-08-03T06:39:23.526Z,96773.97
2022-08-03T06:45:06.673Z,96774.66
2022-08-03T06:47:35.221Z,96777.34
2022-08-03T06:50:14.193Z,96778.22
2022-08-03T06:52:46.092Z,96775.34
2022-08-03T06:55:19.830Z,96778.88
2022-08-03T06:57:59.854Z,96773.34
2022-08-03T07:00:44.476Z,96777.66
2022-08-03T07:03:15.686Z,96777.75
2022-08-03T07:05:55.394Z,96785.28
2022-08-03T07:08:34.252Z,96785.84
2022-08-03T07:11:16.092Z,96779.81
2022-08-03T09:09:02.790Z,96758.91
2022-08-03T09:11:51.618Z,96755.91
2022-08-03T09:14:33.662Z,96754.19
2022-08-03T09:17:05.224Z,96755.16
2022-08-03T09:19:34.720Z,96763.84
2022-08-03T09:25:48.647Z,96759.31
2022-08-03T09:28:53.860Z,96757.88
2022-08-03T09:31:05.219Z,96766.88
2022-08-03T09:33:36.249Z,96758.19
2022-08-03T09:36:03.994Z,96760.75
2022-08-03T09:38:31.595Z,96755.53
2022-08-03T09:41:01.123Z,96756.72
2022-08-03T09:43:29.363Z,96752.59
2022-08-03T09:46:05.130Z,96755.41
2022-08-03T09:48:34.954Z,96750.50
2022-08-03T09:51:13.438Z,96752.50
2022-08-03T09:53:59.255Z,96751.81
2022-08-03T09:56:41.328Z,96761.88
2022-08-03T09:59:09.147Z,96752.94
2022-08-03T10:01:39.490Z,96759.31
2022-08-03T10:04:07.144Z,96757.84
2022-08-03T10:06:34.803Z,96748.56
2022-08-03T10:09:10.319Z,96751.69
2022-08-03T10:11:42.068Z,96745.63
2022-08-03T10:14:18.597Z,96739.88
2022-08-03T10:16:47.692Z,96744.53
2022-08-03T10:19:15.755Z,96742.56
2022-08-03T10:21:50.395Z,96735.50
2022-08-03T10:24:21.163Z,96739.66
2022-08-03T10:26:51.737Z,96733.09
2022-08-03T10:29:25.445Z,96733.50
2022-08-03T10:31:58.442Z,96732.25
2022-08-03T10:34:28.189Z,96726.50
2022-08-03T10:36:59.800Z,96726.69
2022-08-03T10:39:30.567Z,96729.88
2022-08-03T10:42:02.841Z,96729.75
2022-08-03T10:44:34.560Z,96725.38
2022-08-03T10:47:02.517Z,96713.69
2022-08-03T10:49:34.365Z,96716.88
2022-08-03T10:52:12.760Z,96719.28
2022-08-03T10:55:10.688Z,96705.84
2022-08-03T10:57:58.436Z,96713.47
2022-08-03T11:00:28.509Z,96711.97
2022-08-03T11:03:10.003Z,96703.47
2022-08-03T11:05:40.423Z,96703.03
2022-08-03T11:08:29.509Z,96709.31
2022-08-03T11:10:59.424Z,96698.41
2022-08-03T11:13:33.469Z,96701.16
2022-08-03T11:16:21.935Z,96699.91
2022-08-03T11:18:57.681Z,96704.06
2022-08-03T11:21:59.437Z,96695.06
2022-08-03T11:25:01.083Z,96695.56
2022-08-03T11:27:31.170Z,96690.03
2022-08-03T11:30:02.796Z,96691.00
2022-08-03T11:32:52.705Z,96699.91
2022-08-03T11:35:22.446Z,96693.31
2022-08-03T11:38:10.345Z,96688.91
2022-08-03T11:40:40.837Z,96696.84
2022-08-03T11:43:09.724Z,96687.03
2022-08-03T11:45:39.453Z,96686.41
2022-08-03T11:48:17.669Z,96690.38
2022-08-03T11:50:46.237Z,96683.56
2022-08-03T11:53:19.111Z,96684.53
2022-08-03T11:55:49.717Z,96686.59
2022-08-03T11:59:17.313Z,96676.31
2022-08-03T12:01:13.629Z,96670.13
2022-08-03T12:03:41.318Z,96666.31
2022-08-03T12:06:11.049Z,96675.69
2022-08-03T12:08:38.771Z,96669.66
2022-08-03T12:11:08.716Z,96669.03
2022-08-03T12:14:35.719Z,96669.84
2022-08-03T12:16:29.943Z,96665.22
2022-08-03T12:18:58.876Z,96669.50
2022-08-03T12:21:26.559Z,96664.59
2022-08-03T12:24:00.271Z,96683.16
2022-08-03T12:26:29.190Z,96671.59
2022-08-03T12:28:57.257Z,96664.59
2022-08-03T12:31:25.088Z,96667.28
2022-08-03T12:33:59.065Z,96670.47
2022-08-03T12:36:34.297Z,96667.16
2022-08-03T12:39:04.478Z,96660.16
2022-08-03T12:41:35.190Z,96659.06
2022-08-03T12:44:04.348Z,96657.16
2022-08-03T12:46:34.251Z,96656.84
2022-08-03T12:49:06.901Z,96652.75
2022-08-03T12:51:36.568Z,96649.91
2022-08-03T12:54:05.376Z,96646.91
2022-08-03T12:56:33.030Z,96644.03
2022-08-03T12:59:00.638Z,96641.81
2022-08-03T13:01:37.411Z,96636.44
2022-08-03T13:04:06.607Z,96639.91
2022-08-03T13:06:34.266Z,96638.81
2022-08-03T13:09:06.379Z,96639.13
2022-08-03T13:11:53.521Z,96647.22
2022-08-03T15:10:57.593Z,96564.13
2022-08-03T15:13:27.371Z,96554.91
2022-08-03T15:16:00.878Z,96552.53
2022-08-03T15:18:36.185Z,96553.63
2022-08-03T15:21:16.581Z,96550.16
2022-08-03T15:27:06.663Z,96545.41
2022-08-03T15:30:06.739Z,96541.13
2022-08-03T15:32:31.534Z,96547.63
2022-08-03T15:35:05.631Z,96554.13
2022-08-03T15:37:39.768Z,96549.84
2022-08-03T16:43:19.210Z,96515.88
2022-08-03T16:46:00.451Z,96510.34
2022-08-03T16:51:40.393Z,96509.06
2022-08-03T16:57:59.364Z,96505.75
2022-08-03T17:00:34.265Z,96509.53
2022-08-03T17:14:15.416Z,96503.53
2022-08-03T17:16:52.440Z,96507.66
2022-08-03T17:19:23.751Z,96511.16
2022-08-03T17:21:58.065Z,96511.16
2022-08-03T17:24:41.452Z,96512.56
2022-08-03T17:33:20.171Z,96514.63
2022-08-03T17:39:55.709Z,96514.91
2022-08-03T17:42:45.322Z,96510.19
2022-08-03T18:12:53.275Z,96532.56
2022-08-03T18:39:34.931Z,96547.00
2022-08-03T18:42:32.852Z,96550.63
2022-08-03T18:45:14.713Z,96555.03
2022-08-03T18:48:06.647Z,96550.25
2022-08-03T18:50:49.591Z,96548.97
2022-08-03T18:54:02.471Z,96549.41
2022-08-03T18:56:29.143Z,96552.25
2022-08-03T19:15:36.940Z,96560.94
2022-08-03T19:18:27.635Z,96562.41
2022-08-03T19:26:31.544Z,96563.34
2022-08-03T19:29:01.070Z,96566.84
2022-08-03T19:31:34.791Z,96573.53
2022-08-03T19:34:04.879Z,96575.44
2022-08-03T19:36:40.400Z,96576.69
2022-08-03T19:39:10.061Z,96574.50
2022-08-03T19:41:42.861Z,96573.38
2022-08-03T19:44:20.316Z,96569.84
2022-08-03T19:46:55.346Z,96567.81
2022-08-03T19:50:04.869Z,96579.47
2022-08-03T19:52:24.452Z,96578.81
2022-08-03T19:55:02.072Z,96575.22
2022-08-03T19:57:33.893Z,96572.91
2022-08-03T20:00:03.423Z,96575.44
2022-08-03T20:02:33.856Z,96577.66
2022-08-03T20:05:02.705Z,96571.66
2022-08-03T20:07:33.270Z,96570.41
2022-08-03T20:10:02.735Z,96569.44
2022-08-03T20:12:38.585Z,96567.91
2022-08-03T20:15:09.224Z,96564.81
2022-08-03T20:17:54.810Z,96567.03
2022-08-03T20:20:30.026Z,96560.44
2022-08-03T20:22:59.700Z,96568.53
2022-08-03T20:25:38.125Z,96561.91
2022-08-03T20:28:13.834Z,96563.81
2022-08-03T20:30:47.241Z,96563.06
2022-08-03T20:33:18.877Z,96561.56
2022-08-03T20:35:48.969Z,96553.56
2022-08-03T20:38:18.719Z,96556.31
2022-08-03T20:40:48.060Z,96559.03
2022-08-03T20:43:16.010Z,96547.31
2022-08-03T20:45:58.225Z,96553.78
2022-08-03T20:48:31.617Z,96551.97
2022-08-03T20:50:59.456Z,96553.09
2022-08-03T20:53:57.365Z,96551.25
2022-08-03T20:56:16.717Z,96551.81
2022-08-03T20:58:50.505Z,96554.03
2022-08-03T21:01:27.966Z,96553.25
2022-08-03T21:04:07.174Z,96556.25
2022-08-03T21:06:45.687Z,96558.19
2022-08-03T21:09:39.802Z,96563.84
2022-08-03T21:12:13.008Z,96557.47
2022-08-03T21:14:52.406Z,96559.63
2022-08-03T21:17:39.911Z,96552.22
2022-08-03T21:20:12.457Z,96553.56
2022-08-03T21:22:45.004Z,96556.28
2022-08-03T21:25:15.988Z,96554.94
2022-08-03T21:27:44.490Z,96553.09
2022-08-03T21:30:13.250Z,96552.03
2022-08-03T21:32:43.722Z,96548.31
2022-08-03T21:35:14.068Z,96556.06
2022-08-03T21:37:43.257Z,96549.19
2022-08-03T21:40:13.618Z,96553.47
2022-08-03T21:42:42.893Z,96555.09
2022-08-03T21:45:17.118Z,96547.91
2022-08-03T21:47:46.462Z,96547.66
2022-08-03T21:50:15.318Z,96549.78
2022-08-03T21:52:44.683Z,96549.03
2022-08-03T21:55:18.549Z,96549.56
2022-08-03T21:57:52.922Z,96548.25
2022-08-03T22:00:22.929Z,96554.94
2022-08-03T22:02:54.814Z,96552.53
2022-08-03T22:05:42.542Z,96553.09
2022-08-03T22:08:13.508Z,96544.81
2022-08-03T22:10:41.615Z,96550.19
2022-08-03T22:13:09.257Z,96549.91
2022-08-03T22:15:36.793Z,96556.56
2022-08-03T22:18:05.190Z,96552.84
2022-08-03T22:20:34.376Z,96563.78
2022-08-03T22:23:04.528Z,96556.84
2022-08-03T22:25:34.756Z,96562.19
2022-08-03T22:28:05.174Z,96559.53
2022-08-03T22:30:33.061Z,96560.56
2022-08-03T22:33:02.259Z,96561.94
2022-08-03T22:35:32.642Z,96566.47
2022-08-03T22:38:17.195Z,96563.25
2022-08-03T22:40:45.827Z,96565.13
2022-08-03T22:43:13.495Z,96571.25
2022-08-03T22:46:08.970Z,96574.47
2022-08-03T22:48:34.250Z,96567.00
2022-08-03T22:51:03.873Z,96565.41
2022-08-03T22:53:33.233Z,96560.06
2022-08-03T22:56:00.741Z,96559.81
2022-08-03T22:58:28.279Z,96559.81
2022-08-03T23:00:58.582Z,96561.94
2022-08-03T23:03:59.632Z,96568.63
2022-08-03T23:06:20.424Z,96570.75
2022-08-03T23:08:51.292Z,96571.53
2022-08-03T23:11:19.740Z,96577.16
2022-08-03T23:13:53.102Z,96575.53
2022-08-03T23:16:28.792Z,96572.31
2022-08-03T23:18:58.924Z,96569.94
2022-08-03T23:21:53.594Z,96569.63
2022-08-03T23:24:29.469Z,96565.63
2022-08-03T23:26:58.522Z,96564.31
2022-08-03T23:29:27.258Z,96575.25
2022-08-03T23:31:55.842Z,96566.19
2022-08-03T23:34:42.051Z,96571.75
2022-08-03T23:37:10.752Z,96573.63
2022-08-03T23:39:40.986Z,96565.34
2022-08-03T23:42:10.296Z,96567.47
2022-08-03T23:44:39.750Z,96569.59
2022-08-03T23:47:07.345Z,96565.31
2022-08-03T23:49:34.886Z,96573.03
2022-08-03T23:52:07.252Z,96577.56
2022-08-03T23:54:45.407Z,96575.19
2022-08-03T23:57:19.799Z,96575.97
